KPGD/PGD METAR and TAF weather

Enter ICAO airport designator
Station Type Date Time Source
KPGD METAR 2022/06/30 11:53 UTC NOAA

KPGD 301153Z 05003KT 10SM CLR 25/23 A3013 RMK AO2 SLP203 T02500233 10256 20239 53006


Station Type Date Time Source
KPGD Decoded METAR 2022/06/30 11:53 UTC NOAA

PUNTA GORDA CHARLOTTE COUNTY, FL, United States (KPGD) 26-55N 82-00W 7M
Jun 30, 2022 - 07:53 AM EDT / 2022.06.30 1153 UTC
Wind: from the NE (050 degrees) at 3 MPH (3 KT):0
Visibility: 10 mile(s):0
Sky conditions: clear
Temperature: 77.0 F (25.0 C)
Dew Point: 73.9 F (23.3 C)
Relative Humidity: 90%
Pressure (altimeter): 30.13 in. Hg (1020 hPa)
Pressure tendency: 0.02 inches (0.6 hPa) higher than three hours ago
ob: KPGD 301153Z 05003KT 10SM CLR 25/23 A3013 RMK AO2 SLP203 T02500233 10256 20239 53006
cycle: 12

Station Type Date Time Source
KPGD TAF 2022/06/30 12:45 UTC NOAA

TAF KPGD 301141Z 3012/0112 VRB03KT P6SM FEW030 FEW250
FM301700 23004KT P6SM FEW030 FEW250
FM302200 25007KT P6SM VCTS SCT025CB BKN150
FM010200 13004KT P6SM SCT035 BKN200
FM010600 VRB03KT P6SM FEW030 SCT200

Example: see airport list